Time;durP1;ratioP1;P1;durP2;ratioP2;P2;SDS_P1;SDS_P2;PMS_P1;PMS_P2;Temp;Humidity;BMP_temperature;BMP_pressure;BME280_temperature;BME280_humidity;BME280_pressure;Samples;Min_cycle;Max_cycle;Signal;HPM_P1;HPM_P2
2022/12/04 00:00:23;;;;;;;;;;;;;;;;;;5066103;28;5009;-61
2022/12/04 00:02:48;;;;;;;;;;;;;;;;;;5054515;28;4561;-63
2022/12/04 00:05:14;;;;;;;;;;;;;;;;;;5055502;28;1676;-60
2022/12/04 00:07:39;;;;;;;;;;;;;;;;;;5052414;28;4870;-65
2022/12/04 00:10:04;;;;;;;;;;;;;;;;;;5050928;28;4905;-62
2022/12/04 00:12:30;;;;;;;;;;;;;;;;;;5052879;28;4609;-63
2022/12/04 00:14:55;;;;;;;;;;;;;;;;;;5056854;28;4879;-62
2022/12/04 00:17:20;;;;;;;;;;;;;;;;;;5067075;28;3208;-63
2022/12/04 00:19:46;;;;;;;;;;;;;;;;;;5049082;28;4638;-64
2022/12/04 00:22:11;;;;;;;;;;;;;;;;;;5051537;28;5068;-62
2022/12/04 00:24:36;;;;;;;;;;;;;;;;;;5065088;28;5056;-61
2022/12/04 00:27:01;;;;;;;;;;;;;;;;;;5058876;28;4939;-61
2022/12/04 00:29:27;;;;;;;;;;;;;;;;;;5056440;28;5088;-63
2022/12/04 00:31:52;;;;;;;;;;;;;;;;;;5059837;28;3485;-61
2022/12/04 00:34:17;;;;;;;;;;;;;;;;;;5054810;28;4524;-62
2022/12/04 00:36:42;;;;;;;;;;;;;;;;;;5054529;28;4866;-61
2022/12/04 00:39:08;;;;;;;;;;;;;;;;;;5060036;28;5252;-61
2022/12/04 00:41:33;;;;;;;;;;;;;;;;;;5060610;28;5321;-61
2022/12/04 00:43:59;;;;;;;;;;;;;;;;;;5057539;28;3394;-62
2022/12/04 00:46:24;;;;;;;;;;;;;;;;;;5057322;28;5293;-63
2022/12/04 00:48:49;;;;;;;;;;;;;;;;;;5057107;28;4975;-62
2022/12/04 00:51:16;;;;;;;;;;;;;;;;;;5058465;28;4492;-63
2022/12/04 00:53:41;;;;;;;;;;;;;;;;;;5054821;28;4931;-63
2022/12/04 00:56:10;;;;;;;;;;;;;;;;;;5055723;28;3549;-62
2022/12/04 00:58:36;;;;;;;;;;;;;;;;;;5068795;28;4982;-62
2022/12/04 01:01:06;;;;;;;;;;;;;;;;;;5063926;28;5212;-61
2022/12/04 01:03:31;;;;;;;;;;;;;;;;;;5057580;28;5071;-62
2022/12/04 01:05:56;;;;;;;;;;;;;;;;;;5050593;28;4939;-62
2022/12/04 01:08:22;;;;;;;;;;;;;;;;;;5063209;28;1050;-62
2022/12/04 01:10:47;;;;;;;;;;;;;;;;;;5059504;28;4483;-62
2022/12/04 01:13:12;;;;;;;;;;;;;;;;;;5049449;28;4980;-62
2022/12/04 01:15:38;;;;;;;;;;;;;;;;;;5062290;28;5095;-62
2022/12/04 01:18:03;;;;;;;;;;;;;;;;;;5058622;28;5096;-61
2022/12/04 01:20:29;;;;;;;;;;;;;;;;;;5058563;28;4806;-64
2022/12/04 01:22:54;;;;;;;;;;;;;;;;;;5061680;28;3331;-64
2022/12/04 01:25:19;;;;;;;;;;;;;;;;;;5051352;28;5285;-62
2022/12/04 01:27:44;;;;;;;;;;;;;;;;;;5052658;28;4923;-61
2022/12/04 01:30:10;;;;;;;;;;;;;;;;;;5057330;28;4928;-61
2022/12/04 01:32:35;;;;;;;;;;;;;;;;;;5061918;28;4915;-62
2022/12/04 01:35:00;;;;;;;;;;;;;;;;;;5058185;28;3511;-61
2022/12/04 01:37:26;;;;;;;;;;;;;;;;;;5061266;28;4756;-61
2022/12/04 01:39:51;;;;;;;;;;;;;;;;;;5056971;28;4708;-61
2022/12/04 01:42:16;;;;;;;;;;;;;;;;;;5055323;28;4513;-61
2022/12/04 01:45:04;;;;;;;;;;;;;;;;;;5058001;28;5137;-61
2022/12/04 01:47:30;;;;;;;;;;;;;;;;;;5058082;28;4688;-61
2022/12/04 01:49:55;;;;;;;;;;;;;;;;;;5056167;28;3398;-61
2022/12/04 01:52:21;;;;;;;;;;;;;;;;;;5071634;28;5082;-60
2022/12/04 01:54:47;;;;;;;;;;;;;;;;;;5053542;28;5251;-62
2022/12/04 01:57:19;;;;;;;;;;;;;;;;;;5054520;28;5216;-61
2022/12/04 01:59:46;;;;;;;;;;;;;;;;;;5061319;28;5035;-62
2022/12/04 02:02:13;;;;;;;;;;;;;;;;;;5072410;28;3308;-63
2022/12/04 02:04:38;;;;;;;;;;;;;;;;;;5069980;28;5170;-62
2022/12/04 02:07:04;;;;;;;;;;;;;;;;;;5058922;28;5199;-62
2022/12/04 02:09:30;;;;;;;;;;;;;;;;;;5060958;28;5021;-62
2022/12/04 02:11:55;;;;;;;;;;;;;;;;;;5055398;28;5444;-62
2022/12/04 02:14:44;;;;;;;;;;;;;;;;;;5047505;28;3018;-62
2022/12/04 02:17:18;;;;;;;;;;;;;;;;;;5063924;28;4916;-64
2022/12/04 02:19:53;;;;;;;;;;;;;;;;;;5064761;28;4433;-62
2022/12/04 02:22:29;;;;;;;;;;;;;;;;;;5062990;28;4971;-62
2022/12/04 02:24:58;;;;;;;;;;;;;;;;;;5052987;28;5065;-63
2022/12/04 02:27:39;;;;;;;;;;;;;;;;;;5059171;28;4656;-62
2022/12/04 02:30:04;;;;;;;;;;;;;;;;;;5056005;28;5138;-62
2022/12/04 02:32:35;;;;;;;;;;;;;;;;;;5051995;28;5063;-64
2022/12/04 02:35:02;;;;;;;;;;;;;;;;;;5053649;28;3330;-62
2022/12/04 02:37:44;;;;;;;;;;;;;;;;;;5095722;28;4450;-63
2022/12/04 02:40:18;;;;;;;;;;;;;;;;;;5064430;28;5150;-65
2022/12/04 02:42:48;;;;;;;;;;;;;;;;;;5055125;28;5071;-62
2022/12/04 02:45:15;;;;;;;;;;;;;;;;;;5062120;28;5053;-62
2022/12/04 02:47:41;;;;;;;;;;;;;;;;;;5064488;28;5133;-62
2022/12/04 02:50:07;;;;;;;;;;;;;;;;;;5065190;28;3458;-62
2022/12/04 02:52:37;;;;;;;;;;;;;;;;;;5056989;28;5074;-62
2022/12/04 02:55:04;;;;;;;;;;;;;;;;;;5060562;28;5190;-62
2022/12/04 02:57:30;;;;;;;;;;;;;;;;;;5062715;28;5092;-62
2022/12/04 02:59:55;;;;;;;;;;;;;;;;;;5064238;28;5315;-63
2022/12/04 03:02:21;;;;;;;;;;;;;;;;;;5077539;28;3426;-62
2022/12/04 03:04:49;;;;;;;;;;;;;;;;;;5060800;28;5023;-63
2022/12/04 03:07:19;;;;;;;;;;;;;;;;;;5063906;28;5694;-62
2022/12/04 03:09:46;;;;;;;;;;;;;;;;;;5061265;28;4839;-63
2022/12/04 03:12:13;;;;;;;;;;;;;;;;;;5056166;28;5082;-63
2022/12/04 03:14:40;;;;;;;;;;;;;;;;;;5057607;28;5120;-63
2022/12/04 03:17:14;;;;;;;;;;;;;;;;;;5064032;28;3620;-63
2022/12/04 03:19:40;;;;;;;;;;;;;;;;;;5065253;28;4957;-62
2022/12/04 03:22:09;;;;;;;;;;;;;;;;;;5061077;28;5038;-63
2022/12/04 03:24:34;;;;;;;;;;;;;;;;;;5060915;28;4504;-63
2022/12/04 03:27:13;;;;;;;;;;;;;;;;;;5059791;28;5114;-63
2022/12/04 03:29:40;;;;;;;;;;;;;;;;;;5059596;28;4681;-63
2022/12/04 03:32:09;;;;;;;;;;;;;;;;;;5060769;28;3376;-63
2022/12/04 03:34:43;;;;;;;;;;;;;;;;;;5062233;28;5031;-63
2022/12/04 03:37:13;;;;;;;;;;;;;;;;;;5060380;28;5097;-63
2022/12/04 03:39:41;;;;;;;;;;;;;;;;;;5062154;28;4693;-63
2022/12/04 03:42:09;;;;;;;;;;;;;;;;;;5052579;28;5142;-63
2022/12/04 03:44:37;;;;;;;;;;;;;;;;;;5050870;28;5105;-62
2022/12/04 03:47:07;;;;;;;;;;;;;;;;;;5061707;28;3529;-65
2022/12/04 03:49:41;;;;;;;;;;;;;;;;;;5056606;28;4987;-63
2022/12/04 03:52:12;;;;;;;;;;;;;;;;;;5059892;28;4981;-62
2022/12/04 03:54:39;;;;;;;;;;;;;;;;;;5060894;28;5488;-62
2022/12/04 03:57:05;;;;;;;;;;;;;;;;;;5062591;28;5202;-62
2022/12/04 03:59:34;;;;;;;;;;;;;;;;;;5062861;28;5029;-63
2022/12/04 04:01:59;;;;;;;;;;;;;;;;;;5063069;28;3173;-65
2022/12/04 04:04:26;;;;;;;;;;;;;;;;;;5059082;28;5406;-63
2022/12/04 04:06:52;;;;;;;;;;;;;;;;;;5071014;28;5114;-63
2022/12/04 04:09:19;;;;;;;;;;;;;;;;;;5053972;28;5062;-63
2022/12/04 04:11:50;;;;;;;;;;;;;;;;;;5059840;28;4969;-66
2022/12/04 04:25:25;;;;;;;;;;;;;;;;;;5071811;28;4944;-62
2022/12/04 04:27:54;;;;;;;;;;;;;;;;;;5103624;27;5208;-63
2022/12/04 04:30:19;;;;;;;;;;;;;;;;;;5079143;28;5460;-64
2022/12/04 04:32:49;;;;;;;;;;;;;;;;;;5076137;28;5033;-63
2022/12/04 04:35:17;;;;;;;;;;;;;;;;;;5109325;27;1719;-63
2022/12/04 04:38:03;;;;;;;;;;;;;;;;;;5080491;28;4420;-63
2022/12/04 04:40:36;;;;;;;;;;;;;;;;;;5112047;27;5075;-63
2022/12/04 04:43:07;;;;;;;;;;;;;;;;;;5078431;28;4553;-63
2022/12/04 04:45:34;;;;;;;;;;;;;;;;;;5080381;28;5003;-62
2022/12/04 04:48:01;;;;;;;;;;;;;;;;;;5093211;28;5120;-64
2022/12/04 04:50:26;;;;;;;;;;;;;;;;;;5096040;27;5210;-66
2022/12/04 04:52:53;;;;;;;;;;;;;;;;;;5112619;27;4471;-63
2022/12/04 04:55:18;;;;;;;;;;;;;;;;;;5112558;27;5218;-63
2022/12/04 04:57:43;;;;;;;;;;;;;;;;;;5094387;28;4580;-63
2022/12/04 05:00:19;;;;;;;;;;;;;;;;;;5081240;28;5274;-62
2022/12/04 05:02:44;;;;;;;;;;;;;;;;;;5078245;28;5116;-62
2022/12/04 05:05:10;;;;;;;;;;;;;;;;;;5078256;28;3296;-63
2022/12/04 05:07:35;;;;;;;;;;;;;;;;;;5076756;28;4488;-64
2022/12/04 05:10:01;;;;;;;;;;;;;;;;;;5079891;28;4884;-63
2022/12/04 05:12:26;;;;;;;;;;;;;;;;;;5081189;28;4561;-62
2022/12/04 05:14:51;;;;;;;;;;;;;;;;;;5080189;28;5218;-62
2022/12/04 05:17:16;;;;;;;;;;;;;;;;;;5115338;28;3320;-62
2022/12/04 05:19:54;;;;;;;;;;;;;;;;;;5077391;28;5137;-63
2022/12/04 05:22:21;;;;;;;;;;;;;;;;;;5077754;28;5044;-62
2022/12/04 05:24:46;;;;;;;;;;;;;;;;;;5080796;28;4512;-65
2022/12/04 05:27:11;;;;;;;;;;;;;;;;;;5080008;28;4679;-63
2022/12/04 05:29:36;;;;;;;;;;;;;;;;;;5072872;28;5198;-62
2022/12/04 05:32:02;;;;;;;;;;;;;;;;;;5074174;28;3414;-62
2022/12/04 05:34:27;;;;;;;;;;;;;;;;;;5074923;28;5127;-62
2022/12/04 05:36:52;;;;;;;;;;;;;;;;;;5082959;28;4976;-62
2022/12/04 05:39:18;;;;;;;;;;;;;;;;;;5080947;28;4901;-62
2022/12/04 05:41:43;;;;;;;;;;;;;;;;;;5083795;28;5634;-62
2022/12/04 05:44:08;;;;;;;;;;;;;;;;;;5077547;28;3477;-63
2022/12/04 05:46:33;;;;;;;;;;;;;;;;;;5075929;28;4526;-64
2022/12/04 05:48:58;;;;;;;;;;;;;;;;;;5086056;28;5116;-62
2022/12/04 05:51:24;;;;;;;;;;;;;;;;;;5086181;28;5019;-63
2022/12/04 05:53:50;;;;;;;;;;;;;;;;;;5084834;28;4994;-62
2022/12/04 05:56:15;;;;;;;;;;;;;;;;;;5080952;28;1193;-63
2022/12/04 05:58:40;;;;;;;;;;;;;;;;;;5078278;28;4935;-62
2022/12/04 06:01:09;;;;;;;;;;;;;;;;;;5084735;28;4953;-62
2022/12/04 06:03:35;;;;;;;;;;;;;;;;;;5082602;28;5145;-62
2022/12/04 06:06:00;;;;;;;;;;;;;;;;;;5075370;28;5095;-63
2022/12/04 06:08:25;;;;;;;;;;;;;;;;;;5089268;28;3461;-63
2022/12/04 06:10:50;;;;;;;;;;;;;;;;;;5086746;28;4962;-63
2022/12/04 06:13:15;;;;;;;;;;;;;;;;;;5083898;28;4864;-63
2022/12/04 06:15:41;;;;;;;;;;;;;;;;;;5084608;28;4697;-63
2022/12/04 06:18:06;;;;;;;;;;;;;;;;;;5082555;28;5138;-62
2022/12/04 06:20:31;;;;;;;;;;;;;;;;;;5084923;28;4536;-62
2022/12/04 06:22:57;;;;;;;;;;;;;;;;;;5083471;28;3277;-64
2022/12/04 06:25:22;;;;;;;;;;;;;;;;;;5084205;28;4901;-63
2022/12/04 06:27:47;;;;;;;;;;;;;;;;;;5084307;28;5078;-63
2022/12/04 06:30:12;;;;;;;;;;;;;;;;;;5098355;28;5061;-63
2022/12/04 06:32:38;;;;;;;;;;;;;;;;;;5085452;28;4739;-63
2022/12/04 06:35:03;;;;;;;;;;;;;;;;;;5082872;28;3546;-63
2022/12/04 06:37:28;;;;;;;;;;;;;;;;;;5082034;28;4785;-62
2022/12/04 06:39:54;;;;;;;;;;;;;;;;;;5079685;28;5114;-62
2022/12/04 06:42:19;;;;;;;;;;;;;;;;;;5082611;28;5163;-61
2022/12/04 06:44:44;;;;;;;;;;;;;;;;;;5081002;28;5258;-66
2022/12/04 06:47:09;;;;;;;;;;;;;;;;;;5080345;28;3252;-65
2022/12/04 06:49:35;;;;;;;;;;;;;;;;;;5084025;28;4895;-63
2022/12/04 06:52:00;;;;;;;;;;;;;;;;;;5081537;28;5029;-62
2022/12/04 06:54:25;;;;;;;;;;;;;;;;;;5083590;28;4856;-62
2022/12/04 06:56:50;;;;;;;;;;;;;;;;;;5083538;28;4893;-62
2022/12/04 06:59:16;;;;;;;;;;;;;;;;;;5079759;28;3366;-62
2022/12/04 07:01:41;;;;;;;;;;;;;;;;;;5080815;28;4945;-64
2022/12/04 07:04:06;;;;;;;;;;;;;;;;;;5069197;28;5502;-66
2022/12/04 07:06:32;;;;;;;;;;;;;;;;;;5071742;28;5230;-62
2022/12/04 07:09:08;;;;;;;;;;;;;;;;;;5075778;28;4475;-63
2022/12/04 07:11:33;;;;;;;;;;;;;;;;;;5081956;28;4659;-62
2022/12/04 07:13:59;;;;;;;;;;;;;;;;;;5078087;28;3346;-62
2022/12/04 07:16:24;;;;;;;;;;;;;;;;;;5083768;28;4972;-63
2022/12/04 07:18:50;;;;;;;;;;;;;;;;;;5085099;28;4634;-63
2022/12/04 07:21:16;;;;;;;;;;;;;;;;;;5076412;27;4875;-65
2022/12/04 07:23:41;;;;;;;;;;;;;;;;;;5085586;28;5550;-63
2022/12/04 07:26:10;;;;;;;;;;;;;;;;;;5089126;28;1148;-63
2022/12/04 07:28:36;;;;;;;;;;;;;;;;;;5086168;28;5134;-62
2022/12/04 07:31:05;;;;;;;;;;;;;;;;;;5085451;28;5015;-66
2022/12/04 07:33:31;;;;;;;;;;;;;;;;;;5081349;27;5000;-63
2022/12/04 07:35:56;;;;;;;;;;;;;;;;;;5076031;28;5280;-63
2022/12/04 07:38:22;;;;;;;;;;;;;;;;;;5084970;28;3295;-62
2022/12/04 07:40:47;;;;;;;;;;;;;;;;;;5078954;28;5402;-63
2022/12/04 07:43:12;;;;;;;;;;;;;;;;;;5090499;28;4962;-61
2022/12/04 07:45:38;;;;;;;;;;;;;;;;;;5086105;28;5009;-62
2022/12/04 07:48:03;;;;;;;;;;;;;;;;;;5090344;28;4961;-62
2022/12/04 07:50:28;;;;;;;;;;;;;;;;;;5080527;27;4465;-65
2022/12/04 07:52:54;;;;;;;;;;;;;;;;;;5079044;28;4677;-61
2022/12/04 07:55:19;;;;;;;;;;;;;;;;;;5082649;28;5251;-62
2022/12/04 07:57:44;;;;;;;;;;;;;;;;;;5081333;28;4592;-62
2022/12/04 08:00:10;;;;;;;;;;;;;;;;;;5087786;27;5118;-65
2022/12/04 08:02:35;;;;;;;;;;;;;;;;;;5076154;28;4731;-62
2022/12/04 08:05:00;;;;;;;;;;;;;;;;;;5077801;28;3576;-61
2022/12/04 08:07:26;;;;;;;;;;;;;;;;;;5081827;27;4561;-62
2022/12/04 08:09:51;;;;;;;;;;;;;;;;;;5081035;28;4472;-63
2022/12/04 08:12:16;;;;;;;;;;;;;;;;;;5079388;28;4625;-63
2022/12/04 08:14:41;;;;;;;;;;;;;;;;;;5092653;28;5086;-63
2022/12/04 08:17:07;;;;;;;;;;;;;;;;;;5090045;28;3146;-62
2022/12/04 08:19:32;;;;;;;;;;;;;;;;;;5074770;28;5083;-63
2022/12/04 08:21:57;;;;;;;;;;;;;;;;;;5070969;28;4870;-63
2022/12/04 08:24:22;;;;;;;;;;;;;;;;;;5071714;28;4465;-63
2022/12/04 08:26:47;;;;;;;;;;;;;;;;;;5074012;28;4781;-61
2022/12/04 08:29:13;;;;;;;;;;;;;;;;;;5080862;28;3431;-61
2022/12/04 08:31:38;;;;;;;;;;;;;;;;;;5078891;28;5022;-61
2022/12/04 08:34:04;;;;;;;;;;;;;;;;;;5072735;27;5528;-61
2022/12/04 08:36:29;;;;;;;;;;;;;;;;;;5081331;28;4826;-62
2022/12/04 08:38:54;;;;;;;;;;;;;;;;;;5080074;27;5048;-60
2022/12/04 08:41:21;;;;;;;;;;;;;;;;;;5084231;28;3407;-62
2022/12/04 08:43:47;;;;;;;;;;;;;;;;;;5079988;28;5200;-61
2022/12/04 08:46:14;;;;;;;;;;;;;;;;;;5074003;28;6145;-60
2022/12/04 08:48:39;;;;;;;;;;;;;;;;;;5075885;28;5026;-60
2022/12/04 08:51:07;;;;;;;;;;;;;;;;;;5080392;28;4988;-60
2022/12/04 08:53:32;;;;;;;;;;;;;;;;;;5066860;28;5093;-64
2022/12/04 08:55:59;;;;;;;;;;;;;;;;;;5069894;28;3570;-61
2022/12/04 08:58:24;;;;;;;;;;;;;;;;;;5078233;28;5555;-60
2022/12/04 09:00:49;;;;;;;;;;;;;;;;;;5073664;28;5340;-59
2022/12/04 09:03:16;;;;;;;;;;;;;;;;;;5070186;27;4538;-61
2022/12/04 09:05:41;;;;;;;;;;;;;;;;;;5068585;28;4735;-61
2022/12/04 09:08:07;;;;;;;;;;;;;;;;;;5091746;28;3512;-62
2022/12/04 09:10:35;;;;;;;;;;;;;;;;;;5074394;28;4425;-61
2022/12/04 09:13:00;;;;;;;;;;;;;;;;;;5101317;27;5142;-61
2022/12/04 09:15:26;;;;;;;;;;;;;;;;;;5076372;28;5000;-61
2022/12/04 09:17:51;;;;;;;;;;;;;;;;;;5075536;28;5475;-64
2022/12/04 09:20:16;;;;;;;;;;;;;;;;;;5080069;28;3551;-61
2022/12/04 09:22:41;;;;;;;;;;;;;;;;;;5077962;28;5152;-65
2022/12/04 09:25:07;;;;;;;;;;;;;;;;;;5073978;28;4938;-63
2022/12/04 09:27:36;;;;;;;;;;;;;;;;;;5072776;28;4824;-65
2022/12/04 09:30:02;;;;;;;;;;;;;;;;;;5084812;28;4465;-67
2022/12/04 09:32:27;;;;;;;;;;;;;;;;;;5080395;28;4695;-67
2022/12/04 09:34:53;;;;;;;;;;;;;;;;;;5075940;28;3220;-64
2022/12/04 09:37:18;;;;;;;;;;;;;;;;;;5076282;27;5270;-67
2022/12/04 09:39:44;;;;;;;;;;;;;;;;;;5114076;27;6352;-64
2022/12/04 09:42:09;;;;;;;;;;;;;;;;;;5081350;28;5089;-61
2022/12/04 09:44:39;;;;;;;;;;;;;;;;;;5094104;27;5156;-63
2022/12/04 09:47:17;;;;;;;;;;;;;;;;;;5095186;28;3184;-60
2022/12/04 09:49:59;;;;;;;;;;;;;;;;;;5095826;28;4946;-63
2022/12/04 09:52:29;;;;;;;;;;;;;;;;;;5088040;28;5074;-63
2022/12/04 09:54:55;;;;;;;;;;;;;;;;;;5089673;28;4929;-65
2022/12/04 09:57:24;;;;;;;;;;;;;;;;;;5084800;28;4702;-63
2022/12/04 09:59:49;;;;;;;;;;;;;;;;;;5085930;28;4965;-64
2022/12/04 10:02:15;;;;;;;;;;;;;;;;;;5084959;28;2486;-67
2022/12/04 10:04:40;;;;;;;;;;;;;;;;;;5072579;28;4809;-65
2022/12/04 10:07:25;;;;;;;;;;;;;;;;;;5081604;28;4509;-62
2022/12/04 10:09:50;;;;;;;;;;;;;;;;;;5085037;28;5221;-64
2022/12/04 10:12:25;;;;;;;;;;;;;;;;;;5081160;28;4975;-66
2022/12/04 10:15:03;;;;;;;;;;;;;;;;;;5082320;28;4936;-65
2022/12/04 10:17:31;;;;;;;;;;;;;;;;;;5080565;28;5173;-65
2022/12/04 10:19:59;;;;;;;;;;;;;;;;;;5088837;28;1216;-65
2022/12/04 10:22:27;;;;;;;;;;;;;;;;;;5087847;28;4394;-64
2022/12/04 10:24:54;;;;;;;;;;;;;;;;;;5083397;28;4900;-64
2022/12/04 10:27:25;;;;;;;;;;;;;;;;;;5075639;28;5328;-62
2022/12/04 10:29:55;;;;;;;;;;;;;;;;;;5086932;28;4683;-63
2022/12/04 10:32:21;;;;;;;;;;;;;;;;;;5079757;28;3141;-61
2022/12/04 10:34:51;;;;;;;;;;;;;;;;;;5076151;28;5062;-59
2022/12/04 10:37:16;;;;;;;;;;;;;;;;;;5086137;28;4950;-59
2022/12/04 10:39:43;;;;;;;;;;;;;;;;;;5071069;28;5122;-59
2022/12/04 10:42:25;;;;;;;;;;;;;;;;;;5083119;28;5253;-61
2022/12/04 10:44:51;;;;;;;;;;;;;;;;;;5086646;28;4528;-59
2022/12/04 10:47:16;;;;;;;;;;;;;;;;;;5074444;28;1119;-58
2022/12/04 10:49:42;;;;;;;;;;;;;;;;;;5087402;28;4559;-59
2022/12/04 10:52:08;;;;;;;;;;;;;;;;;;5083468;28;4970;-58
2022/12/04 10:54:34;;;;;;;;;;;;;;;;;;5088018;28;4449;-59
2022/12/04 10:57:01;;;;;;;;;;;;;;;;;;5089452;28;4861;-59
2022/12/04 10:59:26;;;;;;;;;;;;;;;;;;5078146;28;4913;-57
2022/12/04 11:01:57;;;;;;;;;;;;;;;;;;5077649;28;1983;-59
2022/12/04 11:04:23;;;;;;;;;;;;;;;;;;5081255;28;4487;-60
2022/12/04 11:06:49;;;;;;;;;;;;;;;;;;5075639;28;5072;-60
2022/12/04 11:09:18;;;;;;;;;;;;;;;;;;5081341;28;4994;-61
2022/12/04 11:11:44;;;;;;;;;;;;;;;;;;5081677;28;4767;-62
2022/12/04 11:14:12;;;;;;;;;;;;;;;;;;5078405;28;3443;-62
2022/12/04 11:16:39;;;;;;;;;;;;;;;;;;5083625;28;5415;-59
2022/12/04 11:19:24;;;;;;;;;;;;;;;;;;5086132;28;4840;-61
2022/12/04 11:21:50;;;;;;;;;;;;;;;;;;5076399;28;5059;-65
2022/12/04 11:24:22;;;;;;;;;;;;;;;;;;5070354;28;4962;-62
2022/12/04 11:26:48;;;;;;;;;;;;;;;;;;5075705;28;4500;-62
2022/12/04 11:29:13;;;;;;;;;;;;;;;;;;5076840;28;3244;-62
2022/12/04 11:31:38;;;;;;;;;;;;;;;;;;5091339;28;4542;-60
2022/12/04 11:34:04;;;;;;;;;;;;;;;;;;5076737;28;5012;-62
2022/12/04 11:36:39;;;;;;;;;;;;;;;;;;5090806;28;5046;-59
2022/12/04 11:39:10;;;;;;;;;;;;;;;;;;5078313;28;5283;-59
2022/12/04 11:41:35;;;;;;;;;;;;;;;;;;5078765;28;4888;-60
2022/12/04 11:44:01;;;;;;;;;;;;;;;;;;5070346;28;3139;-65
2022/12/04 11:46:27;;;;;;;;;;;;;;;;;;5093895;28;4996;-65
2022/12/04 11:48:53;;;;;;;;;;;;;;;;;;5071626;28;5731;-66
2022/12/04 11:51:27;;;;;;;;;;;;;;;;;;5072509;28;4481;-64
2022/12/04 11:54:11;;;;;;;;;;;;;;;;;;5083772;28;5172;-62
2022/12/04 11:56:37;;;;;;;;;;;;;;;;;;5076358;28;4666;-62
2022/12/04 11:59:06;;;;;;;;;;;;;;;;;;5081874;28;1417;-62
2022/12/04 12:01:31;;;;;;;;;;;;;;;;;;5086789;28;4858;-62
2022/12/04 12:04:15;;;;;;;;;;;;;;;;;;5072237;28;5123;-62
2022/12/04 12:06:43;;;;;;;;;;;;;;;;;;5078611;28;5047;-61
2022/12/04 12:09:27;;;;;;;;;;;;;;;;;;5079243;28;4996;-62
2022/12/04 12:11:56;;;;;;;;;;;;;;;;;;5081419;28;4642;-62
2022/12/04 12:14:24;;;;;;;;;;;;;;;;;;5078427;28;1284;-62
2022/12/04 12:16:55;;;;;;;;;;;;;;;;;;5083111;28;5320;-60
2022/12/04 12:19:20;;;;;;;;;;;;;;;;;;5072264;28;4530;-60
2022/12/04 12:21:45;;;;;;;;;;;;;;;;;;5071248;28;5050;-62
2022/12/04 12:24:20;;;;;;;;;;;;;;;;;;5074469;28;4876;-64
2022/12/04 12:26:51;;;;;;;;;;;;;;;;;;5070330;28;4892;-63
2022/12/04 12:29:19;;;;;;;;;;;;;;;;;;5072113;28;3251;-62
2022/12/04 12:31:53;;;;;;;;;;;;;;;;;;5072400;28;4504;-61
2022/12/04 12:34:28;;;;;;;;;;;;;;;;;;5079097;28;5224;-62
2022/12/04 12:36:53;;;;;;;;;;;;;;;;;;5068927;28;5029;-65
2022/12/04 12:39:20;;;;;;;;;;;;;;;;;;5078028;28;5082;-63
2022/12/04 12:41:49;;;;;;;;;;;;;;;;;;5076885;28;5052;-62
2022/12/04 12:44:17;;;;;;;;;;;;;;;;;;5087733;28;3687;-62
2022/12/04 12:46:47;;;;;;;;;;;;;;;;;;5080866;28;4509;-63
2022/12/04 12:49:22;;;;;;;;;;;;;;;;;;5072554;28;4389;-62
2022/12/04 12:52:06;;;;;;;;;;;;;;;;;;5075616;28;4842;-61
2022/12/04 12:54:37;;;;;;;;;;;;;;;;;;5076298;28;5000;-61
2022/12/04 12:57:08;;;;;;;;;;;;;;;;;;5068685;28;4571;-61
2022/12/04 12:59:34;;;;;;;;;;;;;;;;;;5078503;28;5274;-62
2022/12/04 13:02:07;;;;;;;;;;;;;;;;;;5083064;28;3336;-62
2022/12/04 13:04:34;;;;;;;;;;;;;;;;;;5081475;28;4425;-63
2022/12/04 13:07:05;;;;;;;;;;;;;;;;;;5086166;28;4793;-63
2022/12/04 13:09:31;;;;;;;;;;;;;;;;;;5073889;28;4720;-63
2022/12/04 13:12:05;;;;;;;;;;;;;;;;;;5086224;28;4474;-64
2022/12/04 13:14:30;;;;;;;;;;;;;;;;;;5083204;28;3163;-64
2022/12/04 13:16:57;;;;;;;;;;;;;;;;;;5080174;28;4787;-64
2022/12/04 13:19:24;;;;;;;;;;;;;;;;;;5076383;28;4992;-61
2022/12/04 13:21:58;;;;;;;;;;;;;;;;;;5089669;28;5206;-63
2022/12/04 13:24:53;;;;;;;;;;;;;;;;;;5082955;28;5037;-62
2022/12/04 13:27:30;;;;;;;;;;;;;;;;;;5075940;28;5795;-61
2022/12/04 13:30:01;;;;;;;;;;;;;;;;;;5085332;28;4923;-61
2022/12/04 13:32:33;;;;;;;;;;;;;;;;;;5083123;28;3309;-66
2022/12/04 13:35:01;;;;;;;;;;;;;;;;;;5080761;28;4571;-60
2022/12/04 13:37:45;;;;;;;;;;;;;;;;;;5070784;28;4560;-63
2022/12/04 13:40:26;;;;;;;;;;;;;;;;;;5074415;27;4982;-61
2022/12/04 13:42:51;;;;;;;;;;;;;;;;;;5076153;27;5606;-63
2022/12/04 13:45:26;;;;;;;;;;;;;;;;;;5079076;28;5043;-64
2022/12/04 13:47:55;;;;;;;;;;;;;;;;;;5085569;27;5004;-63
2022/12/04 13:50:25;;;;;;;;;;;;;;;;;;5086140;28;3118;-63
2022/12/04 13:52:52;;;;;;;;;;;;;;;;;;5083754;28;4794;-65
2022/12/04 13:55:25;;;;;;;;;;;;;;;;;;5077017;28;5164;-63
2022/12/04 13:57:57;;;;;;;;;;;;;;;;;;5075465;28;4974;-64
2022/12/04 14:00:23;;;;;;;;;;;;;;;;;;5080263;28;5208;-64
2022/12/04 14:02:49;;;;;;;;;;;;;;;;;;5080017;28;4968;-64
2022/12/04 14:05:14;;;;;;;;;;;;;;;;;;5091652;28;1339;-66
2022/12/04 14:07:54;;;;;;;;;;;;;;;;;;5078411;28;5019;-65
2022/12/04 14:10:19;;;;;;;;;;;;;;;;;;5069349;28;4902;-64
2022/12/04 14:12:48;;;;;;;;;;;;;;;;;;5079146;28;4618;-63
2022/12/04 14:15:21;;;;;;;;;;;;;;;;;;5097915;28;4910;-63
2022/12/04 14:17:55;;;;;;;;;;;;;;;;;;5113595;28;4953;-62
2022/12/04 14:20:24;;;;;;;;;;;;;;;;;;5078423;28;3393;-63
2022/12/04 14:22:50;;;;;;;;;;;;;;;;;;5079615;28;5001;-62
2022/12/04 14:25:15;;;;;;;;;;;;;;;;;;5073537;28;5040;-63
2022/12/04 14:27:40;;;;;;;;;;;;;;;;;;5071370;28;4524;-62
2022/12/04 14:30:15;;;;;;;;;;;;;;;;;;5074228;28;4827;-62
2022/12/04 14:32:40;;;;;;;;;;;;;;;;;;5080696;28;4678;-62
2022/12/04 14:35:11;;;;;;;;;;;;;;;;;;5080849;28;1378;-62
2022/12/04 14:37:36;;;;;;;;;;;;;;;;;;5089748;28;4828;-62
2022/12/04 14:40:02;;;;;;;;;;;;;;;;;;5076189;28;4974;-62
2022/12/04 14:42:37;;;;;;;;;;;;;;;;;;5088412;28;5001;-63
2022/12/04 14:45:04;;;;;;;;;;;;;;;;;;5076621;28;5873;-62
2022/12/04 14:47:38;;;;;;;;;;;;;;;;;;5093022;28;3200;-65
2022/12/04 14:50:07;;;;;;;;;;;;;;;;;;5083355;28;4902;-63
2022/12/04 14:52:36;;;;;;;;;;;;;;;;;;5077404;28;4996;-62
2022/12/04 14:55:17;;;;;;;;;;;;;;;;;;5087238;28;5084;-64
2022/12/04 14:58:47;;;;;;;;;;;;;;;;;;5083708;28;4888;-63
2022/12/04 15:00:51;;;;;;;;;;;;;;;;;;5082079;28;5043;-62
2022/12/04 15:03:16;;;;;;;;;;;;;;;;;;5070913;28;5068;-62
2022/12/04 15:05:41;;;;;;;;;;;;;;;;;;5078299;28;4493;-62
2022/12/04 15:08:06;;;;;;;;;;;;;;;;;;5088235;28;1376;-62
2022/12/04 15:13:26;;;;;;;;;;;;;;;;;;5085032;28;5154;-62
2022/12/04 15:15:51;;;;;;;;;;;;;;;;;;5087446;28;4946;-61
2022/12/04 15:18:17;;;;;;;;;;;;;;;;;;5089689;28;5011;-62
2022/12/04 15:20:48;;;;;;;;;;;;;;;;;;5076667;28;5059;-62
2022/12/04 15:23:16;;;;;;;;;;;;;;;;;;5083837;28;3332;-62
2022/12/04 15:25:43;;;;;;;;;;;;;;;;;;5076709;28;5250;-63
2022/12/04 15:28:22;;;;;;;;;;;;;;;;;;5075531;28;5360;-64
2022/12/04 15:30:48;;;;;;;;;;;;;;;;;;5083383;28;5093;-65
2022/12/04 15:33:14;;;;;;;;;;;;;;;;;;5089800;28;4571;-63
2022/12/04 15:35:41;;;;;;;;;;;;;;;;;;5074750;28;4940;-65
2022/12/04 15:38:09;;;;;;;;;;;;;;;;;;5082046;28;2168;-63
2022/12/04 15:40:34;;;;;;;;;;;;;;;;;;5078178;28;5029;-64
2022/12/04 15:43:13;;;;;;;;;;;;;;;;;;5080706;27;4970;-63
2022/12/04 15:45:38;;;;;;;;;;;;;;;;;;5082478;28;4510;-64
2022/12/04 15:48:03;;;;;;;;;;;;;;;;;;5076361;28;5109;-63
2022/12/04 15:50:30;;;;;;;;;;;;;;;;;;5069507;28;1103;-62
2022/12/04 15:52:58;;;;;;;;;;;;;;;;;;5077653;28;4897;-65
2022/12/04 15:55:23;;;;;;;;;;;;;;;;;;5087809;28;5004;-63
2022/12/04 15:57:52;;;;;;;;;;;;;;;;;;5086201;28;5105;-62
2022/12/04 16:00:21;;;;;;;;;;;;;;;;;;5088305;28;4961;-62
2022/12/04 16:02:47;;;;;;;;;;;;;;;;;;5079810;28;5004;-62
2022/12/04 16:05:12;;;;;;;;;;;;;;;;;;5089639;28;1542;-62
2022/12/04 16:07:46;;;;;;;;;;;;;;;;;;5081498;28;4819;-61
2022/12/04 16:10:24;;;;;;;;;;;;;;;;;;5082506;28;5024;-64
2022/12/04 16:12:59;;;;;;;;;;;;;;;;;;5084329;28;5118;-63
2022/12/04 16:15:26;;;;;;;;;;;;;;;;;;5082516;28;4930;-63
2022/12/04 16:17:51;;;;;;;;;;;;;;;;;;5076580;28;5070;-64
2022/12/04 16:20:16;;;;;;;;;;;;;;;;;;5092765;28;3360;-64
2022/12/04 16:22:42;;;;;;;;;;;;;;;;;;5074272;28;4947;-66
2022/12/04 16:25:10;;;;;;;;;;;;;;;;;;5079820;28;5082;-64
2022/12/04 16:27:36;;;;;;;;;;;;;;;;;;5080926;28;5061;-65
2022/12/04 16:30:01;;;;;;;;;;;;;;;;;;5081064;28;5088;-66
2022/12/04 16:32:28;;;;;;;;;;;;;;;;;;5082279;28;1392;-64
2022/12/04 16:34:53;;;;;;;;;;;;;;;;;;5081654;28;4945;-63
2022/12/04 16:37:19;;;;;;;;;;;;;;;;;;5074621;28;4645;-64
2022/12/04 16:39:44;;;;;;;;;;;;;;;;;;5084120;28;5090;-65
2022/12/04 16:42:39;;;;;;;;;;;;;;;;;;5080324;28;5292;-62
2022/12/04 16:45:27;;;;;;;;;;;;;;;;;;5079972;28;5088;-63
2022/12/04 16:47:53;;;;;;;;;;;;;;;;;;5069931;28;4668;-63
2022/12/04 16:50:18;;;;;;;;;;;;;;;;;;5076048;28;1142;-68
2022/12/04 16:52:43;;;;;;;;;;;;;;;;;;5080880;28;4639;-63
2022/12/04 16:55:14;;;;;;;;;;;;;;;;;;5079039;28;5239;-65
2022/12/04 16:57:40;;;;;;;;;;;;;;;;;;5086595;28;5201;-64
2022/12/04 17:00:05;;;;;;;;;;;;;;;;;;5073070;28;5071;-62
2022/12/04 17:02:30;;;;;;;;;;;;;;;;;;5082291;28;3534;-62
2022/12/04 17:04:57;;;;;;;;;;;;;;;;;;5081827;28;5059;-69
2022/12/04 17:07:22;;;;;;;;;;;;;;;;;;5072122;28;5020;-65
2022/12/04 17:09:47;;;;;;;;;;;;;;;;;;5085498;28;5210;-63
2022/12/04 17:12:12;;;;;;;;;;;;;;;;;;5079456;28;5473;-62
2022/12/04 17:14:39;;;;;;;;;;;;;;;;;;5084184;28;5045;-62
2022/12/04 17:17:04;;;;;;;;;;;;;;;;;;5099135;27;3203;-65
2022/12/04 17:19:29;;;;;;;;;;;;;;;;;;5090799;27;4486;-63
2022/12/04 17:21:54;;;;;;;;;;;;;;;;;;5083538;28;4500;-65